Stolt Ami — 3EAZ5 — position and weather

sailwx.info

Track history (hours):
 
Tides and Currents Weather Stations Pressure Air Temp Water Temp Dewpoint Dewpoint Depression Visibility Wind Speed Wind Dir Waves Ship Positions

Stolt Ami

Last reported at 2015-Jun-29 05:34 UTC. Time now 2015-Jul-01 04:49 UTC.
Position N 14°14' W 060°53'.

Length 143 m; draft 9.1 m.

Type: Ship (hazmat cat B). MMSI: 371392514.

Date/timePositionNaut miles runAvg speedWind from/ knotsBaromVisibWave heightAir tempDewpointWater temp
2015-Jun-29 05:34N 14°14' W 060°53'1312.5
2015-Jun-29 04:34N 14°14' W 061°05'1312.6
2015-Jun-29 03:34N 14°15' W 061°18'1111.1
2015-Jun-29 02:34N 14°15' W 061°30'1111.1
2015-Jun-29 01:34N 14°20' W 061°40'1111.4
2015-Jun-29 00:33N 14°25' W 061°51'  
2015-Jun-20 21:33N 29°25' W 094°50'1110.9
2015-Jun-20 20:33N 29°34' W 094°56'10 9.6
2015-Jun-20 19:33N 29°43' W 095°01'5 5.5
2015-Jun-20 18:33N 29°44' W 095°07'  
Track history (hours):
 
Tides and Currents Weather Stations Pressure Air Temp Water Temp Dewpoint Dewpoint Depression Visibility Wind Speed Wind Dir Waves Ship Positions

Stolt Ami

Last reported at 2015-Jun-29 05:34 UTC. Time now 2015-Jul-01 04:49 UTC.
Position N 14°14' W 060°53'.

Length 143 m; draft 9.1 m.

Type: Ship (hazmat cat B). MMSI: 371392514.

Date/timePositionNaut miles runAvg speedWind from/ knotsBaromVisibWave heightAir tempDewpointWater temp
2015-Jun-29 05:34N 14°14' W 060°53'1312.5
2015-Jun-29 04:34N 14°14' W 061°05'1312.6
2015-Jun-29 03:34N 14°15' W 061°18'1111.1
2015-Jun-29 02:34N 14°15' W 061°30'1111.1
2015-Jun-29 01:34N 14°20' W 061°40'1111.4
2015-Jun-29 00:33N 14°25' W 061°51'  
2015-Jun-20 21:33N 29°25' W 094°50'1110.9
2015-Jun-20 20:33N 29°34' W 094°56'10 9.6
2015-Jun-20 19:33N 29°43' W 095°01'5 5.5
2015-Jun-20 18:33N 29°44' W 095°07'  

Dump ship's entire track history